Flight Track Log - Related Links

Times and Time Zones

All times are in EDT time to prevent confusion due to time zone crossing. See the AAY842 flight status page for this flight to view local times or setup timezone preferences in your user account.

Time Position Orientation Groundspeed Altitude Reporting Facility
EDT Latitude Longitude Course Direction KTS MPH feet Rate Location/Type
Mon 03:23:16 PM 27.9333 -82.6833 360° North 163 188 600  Level Tampa TRACON
Mon 03:23:58 PM 27.9667 -82.6833 360° North 202 232 1,800 1,118 Climbing Tampa TRACON
Mon 03:24:58 PM 28.0333 -82.6667 12° North 262 302 2,500 1,750 Climbing Tampa TRACON
Mon 03:25:58 PM 28.1000 -82.6667 360° North 257 296 5,300 2,518 Climbing Tampa TRACON
Mon 03:28:11 PM 28.2750 -82.6475 North 292 336 10,600 1,990 Climbing Jacksonville Center
Mon 03:29:11 PM 28.3667 -82.6447 North 309 356 11,700 1,450 Climbing Jacksonville Center
Mon 03:30:11 PM 28.4628 -82.6564 354° North 354 407 13,500 2,200 Climbing Jacksonville Center
Mon 03:31:11 PM 28.5672 -82.6844 347° North 374 430 16,100 2,050 Climbing Jacksonville Center
Mon 03:32:11 PM 28.6778 -82.7128 347° North 386 444 17,600 1,450 Climbing Jacksonville Center
Mon 03:33:11 PM 28.7925 -82.7386 349° North 407 468 19,000 1,800 Climbing Jacksonville Center
Mon 03:34:11 PM 28.9136 -82.7456 357° North 419 482 21,200 1,750 Climbing Jacksonville Center
Mon 03:35:11 PM 29.0369 -82.7547 356° North 431 496 22,500 1,300 Climbing Jacksonville Center
Mon 03:36:11 PM 29.1619 -82.7594 358° North 436 502 23,800 1,600 Climbing Jacksonville Center
Mon 03:37:11 PM 29.2914 -82.7689 356° North 449 517 25,700 1,600 Climbing Jacksonville Center
Mon 03:38:11 PM 29.4147 -82.7781 356° North 449 517 27,000 1,200 Climbing Jacksonville Center
Mon 03:39:11 PM 29.5419 -82.7564 North 449 517 28,100 1,200 Climbing Jacksonville Center
Mon 03:40:11 PM 29.6694 -82.7325 North 454 522 29,400 1,250 Climbing Jacksonville Center
Mon 03:41:11 PM 29.7925 -82.7083 10° North 460 529 30,600 800 Climbing Jacksonville Center
Mon 03:42:11 PM 29.9197 -82.6864 North 460 529 31,000 200 Climbing Jacksonville Center
Mon 03:43:11 PM 30.0408 -82.6525 14° North 453 521 31,000 200 Level Jacksonville Center
Mon 03:44:11 PM 30.1639 -82.6308 North 448 516 31,400 450 Climbing Jacksonville Center
Mon 03:45:11 PM 30.2911 -82.5992 12° North 448 516 31,900 800 Climbing Jacksonville Center
Mon 03:46:11 PM 30.4186 -82.5747 North 453 521 33,000 500 Climbing Jacksonville Center
Mon 03:47:11 PM 30.5542 -82.5331 15° North 453 521 32,900  Descending Jacksonville Center
Mon 03:48:11 PM 30.6750 -82.4819 20° North 453 521 33,000 50 Climbing Jacksonville Center
Mon 03:49:11 PM 30.7981 -82.4428 15° North 453 521 33,000  Level Jacksonville Center
Mon 03:50:11 PM 30.9211 -82.3936 19° North 458 527 33,000  Level Jacksonville Center
Mon 03:51:11 PM 31.0378 -82.3469 19° North 458 527 33,000  Level Jacksonville Center
Mon 03:52:11 PM 31.1525 -82.2978 20° North 448 516 33,000  Level Jacksonville Center
Mon 03:53:11 PM 31.2714 -82.2558 17° North 436 502 33,000  Level Jacksonville Center
Mon 03:54:11 PM 31.3858 -82.2064 20° North 441 507 33,000  Level Jacksonville Center
Mon 03:55:11 PM 31.5067 -82.1617 18° North 446 513 33,000  Level Jacksonville Center
Mon 03:56:11 PM 31.6192 -82.1119 21° North 440 506 33,000  Level Jacksonville Center
Mon 03:57:11 PM 31.7275 -82.0694 18° North 444 511 33,000  Level Jacksonville Center
Mon 03:58:11 PM 31.8567 -82.0144 20° North 446 513 33,000  Level Jacksonville Center
Mon 03:59:11 PM 31.9753 -81.9717 17° North 441 507 33,000  Level Jacksonville Center
Mon 04:00:11 PM 32.0792 -81.9167 24° Northeast 446 513 33,000  Level Jacksonville Center
Mon 04:01:11 PM 32.2061 -81.8614 20° North 451 519 33,000  Level Jacksonville Center
Mon 04:02:11 PM 32.3206 -81.8036 23° Northeast 450 518 33,000  Level Jacksonville Center
Mon 04:03:11 PM 32.4267 -81.7556 21° North 450 518 33,000  Level Jacksonville Center
Mon 04:04:11 PM 32.5511 -81.6922 23° Northeast 445 512 33,000  Level Jacksonville Center
Mon 04:05:11 PM 32.6656 -81.6439 20° North 438 504 33,000  Level Jacksonville Center
Mon 04:06:11 PM 32.7672 -81.5881 25° Northeast 431 496 33,000  Level Jacksonville Center
Mon 04:07:11 PM 32.8836 -81.5344 21° North 431 496 33,000  Level Jacksonville Center
Mon 04:08:11 PM 32.9978 -81.4783 22° Northeast 436 502 33,000  Level Jacksonville Center
Mon 04:09:11 PM 33.1142 -81.4219 22° Northeast 436 502 33,000  Level Jacksonville Center
Mon 04:10:11 PM 33.2386 -81.3628 22° Northeast 436 502 33,000  Level Jacksonville Center
Mon 04:11:11 PM 33.3403 -81.3114 23° Northeast 436 502 33,000  Level Jacksonville Center
Mon 04:12:11 PM 33.4564 -81.2519 23° Northeast 436 502 33,000  Level Jacksonville Center
Mon 04:13:11 PM 33.5725 -81.2000 20° North 436 502 33,000  Level Jacksonville Center
Mon 04:14:11 PM 33.6844 -81.1403 24° Northeast 436 502 33,000  Level Jacksonville Center
Mon 04:15:11 PM 33.8006 -81.0831 22° Northeast 436 502 33,000  Level Jacksonville Center
Mon 04:16:11 PM 33.9103 -81.0283 22° Northeast 436 502 33,000  Level Jacksonville Center
Mon 04:17:11 PM 34.0264 -80.9781 20° North 431 496 33,000  Level Jacksonville Center
Mon 04:19:13 PM 34.2625 -80.8644 22° Northeast 444 511 33,000  Level Atlanta Center
Mon 04:20:13 PM 34.3819 -80.7994 24° Northeast 437 503 33,000  Level Atlanta Center
Mon 04:21:13 PM 34.4953 -80.7547 18° North 427 491 33,000  Level Atlanta Center
Mon 04:22:13 PM 34.6064 -80.6950 24° Northeast 432 497 33,000  Level Atlanta Center
Mon 04:23:13 PM 34.7197 -80.6397 22° Northeast 432 497 33,000  Level Atlanta Center
Mon 04:24:13 PM 34.8328 -80.5794 24° Northeast 432 497 33,000  Level Atlanta Center
Mon 04:25:13 PM 34.9503 -80.5267 20° North 432 497 33,000  Level Atlanta Center
Mon 04:26:13 PM 35.0611 -80.4661 24° Northeast 432 497 33,000  Level Atlanta Center
Mon 04:27:13 PM 35.1744 -80.4128 21° North 432 497 33,000  Level Atlanta Center
Mon 04:28:13 PM 35.2853 -80.3544 23° Northeast 432 497 33,000  Level Atlanta Center
Mon 04:29:13 PM 35.4006 -80.3036 20° North 432 497 33,000  Level Atlanta Center
Mon 04:30:13 PM 35.5114 -80.2400 25° Northeast 432 497 33,000  Level Atlanta Center
Mon 04:31:13 PM 35.6244 -80.1886 20° North 432 497 33,000  Level Atlanta Center
Mon 04:33:05 PM 35.8297 -80.0856 22° Northeast 440 506 33,000  Level Washington Center
Mon 04:34:05 PM 35.9294 -80.0375 21° North 434 499 33,000  Level Washington Center
Mon 04:35:05 PM 36.0442 -79.9822 21° North 434 499 33,000  Level Washington Center
Mon 04:36:03 PM 36.1472 -79.9006 33° Northeast 434 499 33,000  Level Washington Center
Mon 04:37:03 PM 36.2525 -79.8214 31° Northeast 434 499 33,000  Level Washington Center
Mon 04:38:05 PM 36.3622 -79.7267 35° Northeast 434 499 33,000  Level Washington Center
Mon 04:39:05 PM 36.4542 -79.6567 31° Northeast 434 499 33,000  Level Washington Center
Mon 04:40:05 PM 36.5531 -79.5739 34° Northeast 429 494 33,000  Level Washington Center
Mon 04:41:03 PM 36.6578 -79.4939 31° Northeast 429 494 33,000  Level Washington Center
Mon 04:42:04 PM 36.7694 -79.4008 34° Northeast 435 501 33,000  Level Washington Center
Mon 04:43:05 PM 36.8739 -79.3256 30° Northeast 435 501 33,000  Level Washington Center
Mon 04:44:05 PM 36.9706 -79.2419 35° Northeast 430 495 33,000  Level Washington Center
Mon 04:45:03 PM 37.0625 -79.1681 33° Northeast 430 495 33,000  Level Washington Center
Mon 04:46:04 PM 37.1650 -79.0869 32° Northeast 430 495 33,000  Level Washington Center
Mon 04:47:05 PM 37.2653 -79.0081 32° Northeast 430 495 33,000  Level Washington Center
Mon 04:48:03 PM 37.3764 -78.9161 33° Northeast 425 489 33,000  Level Washington Center
Mon 04:49:04 PM 37.4767 -78.8369 32° Northeast 425 489 33,000  Level Washington Center
Mon 04:50:04 PM 37.5747 -78.7544 34° Northeast 425 489 33,000  Level Washington Center
Mon 04:51:05 PM 37.6642 -78.6847 32° Northeast 425 489 33,000  Level Washington Center
Mon 04:52:03 PM 37.7642 -78.6022 33° Northeast 425 489 33,000  Level Washington Center
Mon 04:53:05 PM 37.8644 -78.5194 33° Northeast 419 482 33,000  Level Washington Center
Mon 04:54:05 PM 37.9708 -78.4314 33° Northeast 419 482 33,000  Level Washington Center
Mon 04:55:05 PM 38.0644 -78.3506 34° Northeast 413 475 33,000  Level Washington Center
Mon 04:56:03 PM 38.1622 -78.2697 33° Northeast 413 475 33,000  Level Washington Center
Mon 04:57:05 PM 38.2578 -78.1911 33° Northeast 413 475 33,000  Level Washington Center
Mon 04:58:05 PM 38.3533 -78.1097 34° Northeast 408 470 33,000  Level Washington Center
Mon 04:59:03 PM 38.4489 -78.0281 34° Northeast 408 470 33,000  Level Washington Center
Mon 05:00:04 PM 38.5464 -77.9464 33° Northeast 408 470 33,000  Level Washington Center
Mon 05:01:05 PM 38.6417 -77.8669 33° Northeast 408 470 33,000  Level Washington Center
Mon 05:02:05 PM 38.7447 -77.8247 18° North 393 452 33,000  Level Washington Center
Mon 05:03:03 PM 38.8500 -77.7642 24° Northeast 392 451 33,000  Level Washington Center
Mon 05:04:04 PM 38.9444 -77.7242 18° North 395 455 33,000  Level Washington Center
Mon 05:05:04 PM 39.0581 -77.6686 21° North 390 449 33,000  Level Washington Center
Mon 05:07:27 PM 39.2989 -77.5567 20° North 391 450 33,000  Level New York Center
Mon 05:08:27 PM 39.4017 -77.5128 18° North 391 450 33,000  Level New York Center
Mon 05:09:27 PM 39.5050 -77.4553 23° Northeast 391 450 33,000  Level New York Center
Mon 05:10:27 PM 39.6097 -77.4111 18° North 391 450 33,000  Level New York Center
Mon 05:11:27 PM 39.7125 -77.3589 21° North 397 457 33,000  Level New York Center
Mon 05:12:27 PM 39.8175 -77.3119 19° North 397 457 33,000  Level New York Center
Mon 05:13:27 PM 39.9206 -77.2567 22° Northeast 397 457 33,000  Level New York Center
Mon 05:14:27 PM 40.0253 -77.2094 19° North 397 457 33,000 -600 Level New York Center
Mon 05:15:27 PM 40.1372 -77.1464 23° Northeast 397 457 31,800 -1,050 Descending New York Center
Mon 05:16:27 PM 40.2439 -77.0989 19° North 397 457 30,900 -950 Descending New York Center
Mon 05:17:27 PM 40.3492 -77.0433 22° Northeast 397 457 29,900 -950 Descending New York Center
Mon 05:18:27 PM 40.4578 -76.9986 17° North 397 457 29,000 -450 Descending New York Center
Mon 05:19:27 PM 40.5672 -76.9375 23° Northeast 402 463 29,000  Level New York Center
Mon 05:20:27 PM 40.6739 -76.8894 19° North 407 468 29,000  Level New York Center
Mon 05:21:27 PM 40.7833 -76.8308 22° Northeast 407 468 29,000  Level New York Center
Mon 05:22:27 PM 40.8919 -76.7828 18° North 407 468 29,000 -50 Level New York Center
Mon 05:23:27 PM 41.0014 -76.7208 23° Northeast 412 474 28,900 -450 Descending New York Center
Mon 05:24:27 PM 41.0972 -76.6797 18° North 412 474 28,100 -900 Descending New York Center
Mon 05:25:27 PM 41.2064 -76.6231 21° North 412 474 27,100 -1,050 Descending New York Center
Mon 05:26:27 PM 41.3303 -76.5592 21° North 423 487 26,000 -2,000 Descending New York Center
Mon 05:27:27 PM 41.4347 -76.5100 19° North 423 487 23,100 -1,500 Descending New York Center
Mon 05:28:27 PM 41.5458 -76.4531 21° North 423 487 23,000 -650 Descending New York Center
Mon 05:29:27 PM 41.6567 -76.3986 20° North 423 487 21,800 -1,250 Descending New York Center
Mon 05:30:27 PM 41.7617 -76.3381 23° Northeast 411 473 20,500 -1,300 Descending New York Center
Mon 05:31:27 PM 41.8681 -76.2911 18° North 406 467 19,200 -1,350 Descending New York Center
Mon 05:32:27 PM 41.9750 -76.2275 24° Northeast 386 444 17,800 -1,250 Descending New York Center
Mon 05:33:27 PM 42.0706 -76.1850 18° North 383 441 16,700 -1,200 Descending New York Center
Mon 05:34:27 PM 42.1664 -76.1369 20° North 378 435 15,400 -1,200 Descending New York Center
Mon 05:35:27 PM 42.2625 -76.1308 North 359 413 14,300 -1,017 Descending New York Center
Mon 05:36:25 PM 42.3500 -76.1150 North 324 373 13,400 -958 Descending Boston Center
Mon 05:37:26 PM 42.4378 -76.1050 North 319 367 12,400 -968 Descending Boston Center
Mon 05:38:29 PM 42.5225 -76.0961 North 311 358 11,400 -878 Descending Boston Center
Mon 05:39:29 PM 42.6031 -76.0836 North 295 339 10,600 -1,033 Descending Boston Center
Mon 05:40:31 PM 42.6889 -76.0803 North 258 297 9,300 -1,131 Descending Boston Center
Mon 05:41:31 PM 42.7461 -76.0739 North 253 291 8,300 -1,333 Descending Boston Center
Mon 05:41:34 PM 42.7608 -76.0708 North 241 277 7,900 -1,869 Descending Boston Center
Mon 05:42:32 PM 42.8258 -76.0583 North 245 282 6,400 -1,574 Descending Boston Center
Mon 05:42:35 PM 42.8256 -76.0564 101° East 234 269 6,300 -1,200 Descending Boston Center
Mon 05:43:32 PM 42.8861 -76.0492 North 229 264 5,200 -1,180 Descending Boston Center
Mon 05:43:36 PM 42.8864 -76.0492 360° North 216 249 5,100 -1,219 Descending Boston Center
Mon 05:44:36 PM 42.9411 -76.0431 North 192 221 3,900 -1,200 Descending Boston Center
Mon 05:45:36 PM 42.9928 -76.0272 13° North 189 217 2,700 -738 Descending Boston Center
Mon 05:46:38 PM 43.0469 -76.0239 North 191 220 2,400 -787 Descending Boston Center
Mon 05:47:38 PM 43.0853 -76.0597 326° Northwest 189 217 1,100 -1,016 Descending Boston Center
Mon 05:48:42 PM 43.1100 -76.0961 313° West 160 184 300 -750 Descending Boston Center

Login

Don't have an account? Register now (free) for customized features, flight alerts, and more!